Time;durP1;ratioP1;P1;durP2;ratioP2;P2;SDS_P1;SDS_P2;PMS_P1;PMS_P2;Temp;Humidity;BMP_temperature;BMP_pressure;BME280_temperature;BME280_humidity;BME280_pressure;Samples;Min_cycle;Max_cycle;Signal;HPM_P1;HPM_P2
2023/12/26 00:00:33;;;;;;;0.10;0.10;;;;;;;13.07;78.50;100600.94;5098699;28;20087;-82
2023/12/26 00:03:02;;;;;;;0.10;0.10;;;;;;;13.02;78.65;100595.81;5100559;28;20099;-82
2023/12/26 00:05:29;;;;;;;0.10;0.10;;;;;;;13.01;78.80;100593.19;5098495;28;20131;-81
2023/12/26 00:07:56;;;;;;;6.03;2.60;;;;;;;13.15;78.31;100588.25;5096242;28;20060;-80
2023/12/26 00:10:22;;;;;;;0.22;0.22;;;;;;;13.09;78.95;100583.16;5095787;28;20093;-80
2023/12/26 00:12:49;;;;;;;0.10;0.10;;;;;;;13.05;78.99;100586.84;5099031;28;20556;-81
2023/12/26 00:15:15;;;;;;;0.10;0.10;;;;;;;13.13;78.95;100589.25;5078497;28;20029;-81
2023/12/26 00:17:42;;;;;;;0.10;0.10;;;;;;;13.13;78.96;100595.41;5077027;28;20059;-80
2023/12/26 00:20:08;;;;;;;0.10;0.10;;;;;;;13.09;78.81;100585.81;5076342;28;20708;-81
2023/12/26 00:22:35;;;;;;;0.10;0.10;;;;;;;13.04;79.24;100591.28;5086414;28;20492;-82
2023/12/26 00:25:01;;;;;;;0.10;0.10;;;;;;;13.02;79.29;100587.84;5095416;28;20394;-82
2023/12/26 00:27:28;;;;;;;0.05;0.05;;;;;;;13.11;78.66;100595.47;5097334;28;20032;-82
2023/12/26 00:29:55;;;;;;;0.10;0.10;;;;;;;13.17;78.29;100594.41;5078695;28;20058;-80
2023/12/26 00:32:21;;;;;;;0.10;0.10;;;;;;;13.12;79.00;100588.34;5081145;28;20024;-79
2023/12/26 00:34:47;;;;;;;0.10;0.10;;;;;;;13.02;78.95;100573.66;5082690;28;20033;-80
2023/12/26 00:37:14;;;;;;;0.70;0.70;;;;;;;13.11;78.82;100581.31;5081242;28;20503;-80
2023/12/26 00:39:40;;;;;;;0.10;0.10;;;;;;;13.07;79.01;100585.00;5090481;28;20032;-80
2023/12/26 00:42:09;;;;;;;0.10;0.10;;;;;;;12.97;79.73;100594.22;5075141;28;20060;-80
2023/12/26 00:44:36;;;;;;;0.45;0.45;;;;;;;13.07;78.82;100590.31;5073962;28;20043;-80
2023/12/26 00:47:02;;;;;;;0.10;0.10;;;;;;;13.04;78.86;100585.97;5072871;28;20028;-81
2023/12/26 00:49:28;;;;;;;0.10;0.10;;;;;;;13.02;78.98;100617.09;5073266;28;20028;-79
2023/12/26 00:51:55;;;;;;;0.10;0.10;;;;;;;13.02;79.32;100594.94;5083272;28;20031;-79
2023/12/26 00:54:21;;;;;;;0.10;0.10;;;;;;;13.13;78.60;100599.88;5097441;28;20486;-80
2023/12/26 00:56:47;;;;;;;0.10;0.10;;;;;;;13.20;78.15;100602.28;5095729;28;20402;-81
2023/12/26 00:59:13;;;;;;;0.10;0.10;;;;;;;13.15;78.74;100601.56;5074954;28;20522;-82
2023/12/26 01:01:40;;;;;;;0.10;0.10;;;;;;;13.19;78.09;100607.66;5075782;28;20162;-81
2023/12/26 01:04:09;;;;;;;0.15;0.15;;;;;;;13.07;79.01;100619.56;5075983;28;20032;-82
2023/12/26 01:06:35;;;;;;;0.10;0.10;;;;;;;13.20;78.51;100618.22;5073404;28;20024;-79
2023/12/26 01:09:02;;;;;;;0.10;0.10;;;;;;;13.15;78.41;100624.66;5071752;28;20024;-80
2023/12/26 01:11:28;;;;;;;0.10;0.10;;;;;;;13.16;78.64;100627.25;5072851;28;20441;-83
2023/12/26 01:13:55;;;;;;;6.63;1.58;;;;;;;13.00;79.16;100621.56;5072880;28;20035;-81
2023/12/26 01:16:25;;;;;;;0.10;0.10;;;;;;;13.07;79.11;100615.13;5072701;28;20028;-80
2023/12/26 01:18:51;;;;;;;0.10;0.10;;;;;;;13.11;78.94;100623.88;5072362;28;20024;-80
2023/12/26 01:21:18;;;;;;;0.10;0.10;;;;;;;13.17;78.60;100629.00;5076470;28;20096;-79
2023/12/26 01:23:44;;;;;;;0.10;0.10;;;;;;;13.16;78.93;100635.22;5092359;28;20046;-81
2023/12/26 01:26:10;;;;;;;0.10;0.10;;;;;;;13.09;78.90;100631.88;5080754;28;20092;-82
2023/12/26 01:28:37;;;;;;;0.22;0.22;;;;;;;13.08;78.46;100639.94;5086835;28;20124;-82
2023/12/26 01:31:03;;;;;;;0.10;0.10;;;;;;;13.22;78.31;100637.69;5096454;28;20048;-81
2023/12/26 01:33:29;;;;;;;0.10;0.10;;;;;;;13.14;78.18;100653.03;5098482;28;20054;-81
2023/12/26 01:35:56;;;;;;;0.10;0.10;;;;;;;13.04;78.45;100639.16;5100180;28;20080;-82
2023/12/26 01:38:23;;;;;;;0.20;0.20;;;;;;;13.02;78.00;100646.34;5105964;28;20031;-82
2023/12/26 01:40:49;;;;;;;0.10;0.10;;;;;;;13.01;78.45;100649.91;5109444;28;20048;-82
2023/12/26 01:43:15;;;;;;;0.10;0.10;;;;;;;13.09;77.97;100666.47;5100605;28;20437;-82
2023/12/26 01:45:41;;;;;;;0.10;0.10;;;;;;;13.05;78.24;100646.22;5101479;28;20024;-82
2023/12/26 01:48:09;;;;;;;0.10;0.10;;;;;;;12.99;77.95;100661.53;5103336;28;20028;-81
2023/12/26 01:50:37;;;;;;;0.75;0.75;;;;;;;13.14;77.64;100650.38;5100081;28;20023;-82
2023/12/26 01:53:04;;;;;;;0.08;0.08;;;;;;;13.15;77.70;100649.44;5100218;28;20036;-82
2023/12/26 01:55:30;;;;;;;0.10;0.10;;;;;;;13.18;77.04;100641.34;5100088;28;20499;-82
2023/12/26 01:57:58;;;;;;;0.10;0.10;;;;;;;13.02;77.22;100656.09;5100869;28;20032;-82
2023/12/26 02:00:25;;;;;;;0.10;0.10;;;;;;;12.98;77.10;100659.78;5094725;28;20058;-83
2023/12/26 02:02:53;;;;;;;0.10;0.10;;;;;;;13.10;77.53;100667.34;5095393;28;20119;-82
2023/12/26 02:05:19;;;;;;;0.10;0.10;;;;;;;13.16;76.84;100679.56;5074245;28;20056;-82
2023/12/26 02:07:45;;;;;;;0.10;0.10;;;;;;;13.12;76.63;100673.47;5074486;28;20033;-82
2023/12/26 02:10:11;;;;;;;0.10;0.10;;;;;;;13.10;76.54;100670.88;5083215;28;20027;-79
2023/12/26 02:12:38;;;;;;;0.10;0.10;;;;;;;13.10;76.66;100681.50;5089337;28;20078;-80
2023/12/26 02:15:05;;;;;;;0.10;0.10;;;;;;;13.00;76.35;100685.41;5093632;28;20031;-80
2023/12/26 02:17:34;;;;;;;0.10;0.10;;;;;;;13.07;76.41;100692.28;5085738;28;20073;-79
2023/12/26 02:20:00;;;;;;;0.10;0.10;;;;;;;13.02;76.17;100699.53;5081472;28;20060;-79
2023/12/26 02:22:26;;;;;;;0.10;0.10;;;;;;;12.96;75.79;100675.81;5105863;28;20024;-80
2023/12/26 02:24:53;;;;;;;0.10;0.10;;;;;;;13.09;75.23;100703.72;5094727;28;20035;-82
2023/12/26 02:27:23;;;;;;;0.13;0.13;;;;;;;12.84;75.49;100711.63;5084739;28;20028;-81
2023/12/26 02:29:52;;;;;;;1.45;1.30;;;;;;;12.94;75.32;100709.53;5087012;28;20035;-81
2023/12/26 02:32:20;;;;;;;0.68;0.68;;;;;;;12.99;74.97;100714.72;5099266;28;20044;-82
2023/12/26 02:34:50;;;;;;;0.00;0.00;;;;;;;12.87;75.29;100722.16;5108232;28;20153;-81
2023/12/26 02:37:17;;;;;;;1.48;1.38;;;;;;;12.79;74.73;100730.38;5107078;28;20191;-82
2023/12/26 02:39:44;;;;;;;0.10;0.10;;;;;;;12.97;74.30;100721.88;5100433;28;20033;-81
2023/12/26 02:42:12;;;;;;;0.10;0.10;;;;;;;12.93;74.33;100721.97;5087424;28;20059;-81
2023/12/26 02:44:38;;;;;;;0.10;0.10;;;;;;;12.77;73.53;100731.34;5086539;28;20021;-82
2023/12/26 02:47:04;;;;;;;0.10;0.10;;;;;;;12.89;73.11;100730.94;5084651;28;20024;-80
2023/12/26 02:49:31;;;;;;;0.10;0.10;;;;;;;12.74;73.69;100729.63;5079946;28;20051;-80
2023/12/26 02:51:57;;;;;;;0.10;0.10;;;;;;;12.74;74.05;100745.59;5080169;28;20029;-81
2023/12/26 02:54:23;;;;;;;0.15;0.15;;;;;;;12.60;74.20;100739.84;5095356;28;20170;-82
2023/12/26 02:56:49;;;;;;;0.10;0.10;;;;;;;12.75;73.60;100754.47;5104337;28;20024;-82
2023/12/26 02:59:16;;;;;;;0.25;0.25;;;;;;;12.71;73.63;100764.31;5103074;28;20038;-82
2023/12/26 03:01:45;;;;;;;0.10;0.10;;;;;;;12.65;73.68;100760.94;5102534;28;20032;-82
2023/12/26 03:04:12;;;;;;;0.10;0.10;;;;;;;12.70;72.83;100773.19;5101747;28;20035;-82
2023/12/26 03:06:38;;;;;;;0.10;0.10;;;;;;;12.55;72.98;100766.53;5099891;28;20024;-81
2023/12/26 03:09:05;;;;;;;0.43;0.43;;;;;;;12.62;72.80;100773.44;5097476;28;20027;-82
2023/12/26 03:11:31;;;;;;;0.20;0.20;;;;;;;12.48;72.10;100790.69;5099291;28;20406;-81
2023/12/26 03:13:59;;;;;;;0.10;0.10;;;;;;;12.34;72.16;100780.47;5099719;28;20032;-82
2023/12/26 03:16:26;;;;;;;0.10;0.10;;;;;;;12.50;71.99;100775.56;5102392;28;20033;-82
2023/12/26 03:18:52;;;;;;;0.10;0.10;;;;;;;12.52;71.92;100787.88;5106050;28;20050;-82
2023/12/26 03:21:20;;;;;;;1.00;1.00;;;;;;;12.46;71.45;100802.22;5105611;28;20036;-83
2023/12/26 03:23:46;;;;;;;0.17;0.17;;;;;;;12.53;71.98;100792.28;5094978;28;20020;-82
2023/12/26 03:26:13;;;;;;;0.10;0.10;;;;;;;12.57;71.69;100799.28;5094431;28;20059;-83
2023/12/26 03:28:39;;;;;;;0.65;0.65;;;;;;;12.60;71.81;100783.22;5097675;28;20026;-81
2023/12/26 03:31:06;;;;;;;0.20;0.20;;;;;;;12.64;71.91;100791.13;5094283;28;20028;-80
2023/12/26 03:33:33;;;;;;;0.20;0.20;;;;;;;12.59;71.35;100797.44;5089745;28;20078;-80
2023/12/26 03:36:02;;;;;;;0.10;0.10;;;;;;;12.59;71.46;100794.78;5075954;28;20035;-81
2023/12/26 03:38:28;;;;;;;0.10;0.10;;;;;;;12.49;71.23;100800.41;5075874;28;20028;-81
2023/12/26 03:40:55;;;;;;;0.10;0.10;;;;;;;12.49;71.49;100806.59;5088898;28;20032;-80
2023/12/26 03:43:21;;;;;;;0.10;0.10;;;;;;;12.44;70.81;100825.31;5094140;28;20033;-83
2023/12/26 03:45:49;;;;;;;0.10;0.10;;;;;;;12.38;70.49;100824.63;5089077;28;20047;-82
2023/12/26 03:48:15;;;;;;;2.92;2.25;;;;;;;12.36;70.42;100815.81;5086266;28;20070;-83
2023/12/26 03:50:41;;;;;;;0.20;0.20;;;;;;;12.18;69.63;100822.53;5087156;28;20024;-83
2023/12/26 03:53:08;;;;;;;0.30;0.30;;;;;;;12.19;69.74;100830.44;5091042;28;20499;-81
2023/12/26 03:55:34;;;;;;;0.10;0.10;;;;;;;12.09;69.17;100828.94;5091554;28;20055;-82
2023/12/26 03:58:01;;;;;;;0.88;0.88;;;;;;;12.15;69.53;100818.16;5086524;28;20066;-82
2023/12/26 04:00:29;;;;;;;0.10;0.10;;;;;;;11.96;68.54;100844.31;5085638;28;20031;-82
2023/12/26 04:02:56;;;;;;;2.20;2.10;;;;;;;12.02;68.39;100830.88;5085826;28;20036;-82
2023/12/26 04:05:22;;;;;;;0.10;0.10;;;;;;;11.98;68.28;100830.09;5084863;28;20049;-82
2023/12/26 04:07:48;;;;;;;0.10;0.10;;;;;;;11.91;68.05;100839.13;5084259;28;20088;-82
2023/12/26 04:10:15;;;;;;;0.35;0.35;;;;;;;11.78;66.83;100841.19;5084350;28;20029;-82
2023/12/26 04:12:42;;;;;;;0.10;0.10;;;;;;;11.58;67.42;100848.78;5084335;28;20080;-82
2023/12/26 04:15:09;;;;;;;0.10;0.10;;;;;;;11.67;66.51;100847.69;5084583;28;20025;-80
2023/12/26 04:17:38;;;;;;;0.10;0.10;;;;;;;11.70;66.23;100859.09;5083686;28;20093;-80
2023/12/26 04:20:04;;;;;;;0.10;0.10;;;;;;;11.65;66.83;100861.84;5083890;28;20058;-80
2023/12/26 04:22:31;;;;;;;0.10;0.10;;;;;;;11.57;66.83;100862.94;5084148;28;20029;-82
2023/12/26 04:24:57;;;;;;;0.10;0.10;;;;;;;11.61;66.69;100870.81;5083982;28;20106;-82
2023/12/26 04:27:23;;;;;;;0.10;0.10;;;;;;;11.45;66.74;100870.28;5084726;28;20099;-82
2023/12/26 04:29:49;;;;;;;0.10;0.10;;;;;;;11.57;65.90;100879.72;5082290;28;20064;-82
2023/12/26 04:32:15;;;;;;;0.22;0.22;;;;;;;11.60;65.90;100882.34;5083212;28;20082;-82
2023/12/26 04:34:42;;;;;;;0.10;0.10;;;;;;;11.50;65.84;100891.41;5085009;28;20032;-82
2023/12/26 04:37:08;;;;;;;0.20;0.20;;;;;;;11.56;65.52;100907.16;5082830;28;20039;-81
2023/12/26 04:39:35;;;;;;;0.20;0.20;;;;;;;11.37;65.08;100903.22;5084017;28;20081;-81
2023/12/26 04:42:01;;;;;;;0.10;0.10;;;;;;;11.29;64.28;100917.50;5085315;28;20055;-81
2023/12/26 04:44:27;;;;;;;0.20;0.20;;;;;;;11.33;63.69;100913.88;5089089;28;20024;-81
2023/12/26 04:46:53;;;;;;;0.17;0.17;;;;;;;11.41;63.98;100921.66;5076490;28;20032;-81
2023/12/26 04:49:19;;;;;;;0.13;0.13;;;;;;;11.32;63.37;100940.44;5073711;28;20491;-80
2023/12/26 04:51:46;;;;;;;0.10;0.10;;;;;;;11.29;63.18;100933.44;5073766;28;20056;-81
2023/12/26 04:54:12;;;;;;;0.10;0.10;;;;;;;11.18;62.96;100924.84;5074184;28;20029;-80
2023/12/26 04:56:43;;;;;;;0.10;0.10;;;;;;;11.30;63.27;100927.22;5073979;28;20403;-81
2023/12/26 04:59:09;;;;;;;0.32;0.32;;;;;;;11.23;63.84;100922.94;5079088;28;20035;-80
2023/12/26 05:01:42;;;;;;;1.20;1.10;;;;;;;11.16;62.84;100938.13;5086846;28;20112;-81
2023/12/26 05:04:10;;;;;;;0.20;0.20;;;;;;;11.11;63.34;100931.16;5084698;28;20047;-81
2023/12/26 05:06:38;;;;;;;0.20;0.20;;;;;;;11.15;63.31;100954.06;5085185;28;20025;-81
2023/12/26 05:09:04;;;;;;;13.80;3.13;;;;;;;11.12;63.53;100935.56;5093238;28;20112;-81
2023/12/26 05:11:30;;;;;;;0.10;0.10;;;;;;;11.19;63.28;100942.50;5096558;28;20121;-81
2023/12/26 05:13:57;;;;;;;0.20;0.20;;;;;;;11.13;63.53;100948.78;5096537;28;20029;-82
2023/12/26 05:16:23;;;;;;;0.10;0.10;;;;;;;11.05;63.12;100944.53;5091842;28;20051;-81
2023/12/26 05:18:49;;;;;;;0.17;0.17;;;;;;;11.10;63.26;100954.16;5082511;28;20024;-81
2023/12/26 05:21:18;;;;;;;0.10;0.10;;;;;;;10.97;63.14;100957.97;5090196;28;20032;-81
2023/12/26 05:23:44;;;;;;;0.10;0.10;;;;;;;11.03;63.43;100947.25;5085583;28;20052;-81
2023/12/26 05:26:11;;;;;;;0.52;0.52;;;;;;;10.87;62.99;100946.66;5082651;28;20036;-81
2023/12/26 05:28:38;;;;;;;0.40;0.40;;;;;;;10.98;63.42;100957.94;5091120;28;20569;-79
2023/12/26 05:31:04;;;;;;;0.10;0.10;;;;;;;10.86;62.97;100952.88;5095988;28;20527;-81
2023/12/26 05:33:31;;;;;;;0.10;0.10;;;;;;;10.87;62.84;100962.56;5106064;28;20035;-81
2023/12/26 05:35:57;;;;;;;0.10;0.10;;;;;;;10.95;62.51;100968.59;5104356;28;20035;-80
2023/12/26 05:38:24;;;;;;;0.13;0.13;;;;;;;10.91;61.94;100963.38;5103677;28;20057;-80
2023/12/26 05:40:50;;;;;;;0.10;0.10;;;;;;;10.94;62.09;100980.09;5103229;28;20032;-79
2023/12/26 05:43:17;;;;;;;0.20;0.20;;;;;;;10.93;60.96;100988.97;5104195;28;20510;-81
2023/12/26 05:45:43;;;;;;;0.15;0.15;;;;;;;10.92;61.24;100997.81;5103888;28;20054;-80
2023/12/26 05:48:09;;;;;;;0.10;0.10;;;;;;;10.89;60.91;101015.53;5101648;28;20058;-81
2023/12/26 05:50:35;;;;;;;0.10;0.10;;;;;;;10.98;60.78;100996.84;5090802;28;20025;-81
2023/12/26 05:53:02;;;;;;;0.17;0.17;;;;;;;10.94;60.17;101017.22;5103406;28;20031;-80
2023/12/26 05:55:29;;;;;;;0.57;0.57;;;;;;;10.82;59.51;101028.06;5107945;28;20036;-81
2023/12/26 05:57:55;;;;;;;0.15;0.15;;;;;;;10.96;59.74;101033.09;5107004;28;20051;-81
2023/12/26 06:00:21;;;;;;;0.20;0.20;;;;;;;10.95;59.79;101045.50;5099409;28;20068;-80
2023/12/26 06:02:47;;;;;;;0.10;0.10;;;;;;;10.91;60.12;101038.47;5115526;28;20020;-82
2023/12/26 06:05:13;;;;;;;0.20;0.20;;;;;;;10.95;60.41;101039.28;5098721;28;20033;-82
2023/12/26 06:07:40;;;;;;;0.10;0.10;;;;;;;10.88;60.24;101037.66;5087928;28;20029;-80
2023/12/26 06:10:09;;;;;;;0.40;0.40;;;;;;;10.94;60.80;101022.53;5094386;28;20031;-80
2023/12/26 06:12:35;;;;;;;0.20;0.20;;;;;;;10.90;60.22;101041.16;5097242;28;20455;-79
2023/12/26 06:15:02;;;;;;;0.10;0.10;;;;;;;10.94;60.54;101037.53;5078813;28;20052;-80
2023/12/26 06:17:29;;;;;;;0.10;0.10;;;;;;;11.03;60.60;101047.09;5076406;28;20024;-80
2023/12/26 06:19:55;;;;;;;0.13;0.13;;;;;;;11.00;60.49;101048.94;5084153;28;20032;-80
2023/12/26 06:22:22;;;;;;;0.10;0.10;;;;;;;10.89;60.74;101050.00;5089207;28;20032;-79
2023/12/26 06:24:49;;;;;;;0.20;0.20;;;;;;;10.91;60.29;101057.03;5098761;28;20028;-79
2023/12/26 06:27:15;;;;;;;1.08;1.08;;;;;;;10.84;61.05;101069.53;5097979;28;20028;-81
2023/12/26 06:29:41;;;;;;;0.10;0.10;;;;;;;10.84;60.24;101092.50;5100836;28;20483;-81
2023/12/26 06:32:08;;;;;;;0.85;0.85;;;;;;;10.87;60.87;101065.94;5098463;28;20035;-81
2023/12/26 06:34:35;;;;;;;0.25;0.25;;;;;;;10.84;60.28;101074.84;5101326;28;20043;-80
2023/12/26 06:37:01;;;;;;;0.10;0.10;;;;;;;10.95;60.23;101077.31;5100099;28;20115;-82
2023/12/26 06:39:27;;;;;;;3.28;1.45;;;;;;;10.89;60.57;101079.16;5094116;28;20499;-82
2023/12/26 06:41:53;;;;;;;0.25;0.25;;;;;;;10.95;60.25;101089.66;5083274;28;20487;-81
2023/12/26 06:44:20;;;;;;;0.20;0.20;;;;;;;10.78;60.27;101106.75;5081275;28;20415;-81
2023/12/26 06:46:47;;;;;;;0.10;0.10;;;;;;;10.87;60.54;101104.84;5079691;28;20467;-79
2023/12/26 06:49:16;;;;;;;0.10;0.10;;;;;;;10.89;60.13;101097.72;5077805;28;20043;-80
2023/12/26 06:51:42;;;;;;;0.10;0.10;;;;;;;10.84;60.65;101111.94;5077220;28;20028;-80
2023/12/26 06:54:09;;;;;;;0.17;0.17;;;;;;;10.85;59.98;101112.81;5082380;28;20060;-80
2023/12/26 06:56:35;;;;;;;0.20;0.20;;;;;;;10.84;59.57;101105.75;5087897;28;20028;-80
2023/12/26 06:59:01;;;;;;;0.10;0.10;;;;;;;10.91;60.22;101106.53;5087546;28;20035;-81
2023/12/26 07:01:28;;;;;;;0.10;0.10;;;;;;;10.74;60.28;101120.06;5086120;28;20036;-80
2023/12/26 07:03:54;;;;;;;0.10;0.10;;;;;;;10.88;60.25;101114.53;5088341;28;20037;-79
2023/12/26 07:06:20;;;;;;;0.10;0.10;;;;;;;10.74;59.87;101112.09;5087247;28;20032;-80
2023/12/26 07:08:47;;;;;;;0.40;0.40;;;;;;;10.82;60.23;101118.16;5086254;28;20115;-81
2023/12/26 07:11:13;;;;;;;0.10;0.10;;;;;;;10.75;59.69;101121.81;5085839;28;20139;-80
2023/12/26 07:13:39;;;;;;;1.75;1.65;;;;;;;10.84;60.22;101116.34;5087279;28;20025;-80
2023/12/26 07:16:06;;;;;;;0.10;0.10;;;;;;;10.87;59.90;101116.31;5086752;28;20033;-80
2023/12/26 07:18:32;;;;;;;0.10;0.10;;;;;;;10.73;59.92;101107.69;5085899;28;20070;-81
2023/12/26 07:20:58;;;;;;;0.20;0.20;;;;;;;10.78;59.41;101108.50;5085185;28;20040;-82
2023/12/26 07:23:24;;;;;;;0.10;0.10;;;;;;;10.94;59.72;101120.63;5085360;28;20033;-82
2023/12/26 07:25:51;;;;;;;0.10;0.10;;;;;;;10.93;60.08;101137.41;5083761;28;20033;-80
2023/12/26 07:28:17;;;;;;;0.10;0.10;;;;;;;10.86;60.00;101134.91;5101268;28;20056;-80
2023/12/26 07:30:44;;;;;;;0.10;0.10;;;;;;;10.88;60.37;101139.28;5103310;28;20024;-82
2023/12/26 07:33:10;;;;;;;1.27;1.27;;;;;;;10.95;60.08;101143.59;5094597;28;20105;-82
2023/12/26 07:35:38;;;;;;;0.20;0.20;;;;;;;11.00;60.11;101139.06;5094324;28;20043;-80
2023/12/26 07:38:05;;;;;;;0.10;0.10;;;;;;;10.93;60.84;101148.03;5094433;28;20032;-79
2023/12/26 07:40:32;;;;;;;0.10;0.10;;;;;;;10.96;60.72;101168.31;5079766;28;20032;-79
2023/12/26 07:42:59;;;;;;;0.20;0.20;;;;;;;10.98;60.83;101179.78;5076218;28;20461;-79
2023/12/26 07:45:26;;;;;;;0.10;0.10;;;;;;;10.86;61.88;101182.63;5087163;28;20051;-77
2023/12/26 07:47:52;;;;;;;0.10;0.10;;;;;;;10.95;62.30;101188.66;5094958;28;20436;-77
2023/12/26 07:50:18;;;;;;;0.73;0.73;;;;;;;10.89;62.69;101222.31;5094729;28;20020;-79
2023/12/26 07:52:45;;;;;;;0.10;0.10;;;;;;;11.03;62.21;101191.16;5096947;28;20055;-79
2023/12/26 07:55:11;;;;;;;0.28;0.28;;;;;;;11.07;62.24;101203.47;5096440;28;20047;-80
2023/12/26 07:57:38;;;;;;;0.20;0.20;;;;;;;10.96;62.85;101216.88;5098092;28;20118;-78
2023/12/26 08:00:04;;;;;;;0.20;0.20;;;;;;;11.05;62.42;101218.53;5102603;28;20035;-81
2023/12/26 08:02:31;;;;;;;0.10;0.10;;;;;;;11.06;62.25;101214.13;5101796;28;20032;-80
2023/12/26 08:04:57;;;;;;;0.10;0.10;;;;;;;11.04;62.12;101218.56;5097712;28;20027;-81
2023/12/26 08:07:23;;;;;;;0.10;0.10;;;;;;;11.01;62.02;101219.47;5093391;28;20035;-79
2023/12/26 08:09:49;;;;;;;0.10;0.10;;;;;;;10.93;61.59;101242.56;5077305;28;20036;-79
2023/12/26 08:12:15;;;;;;;0.13;0.13;;;;;;;10.96;61.75;101242.53;5090800;28;20027;-80
2023/12/26 08:14:42;;;;;;;0.10;0.10;;;;;;;11.03;61.64;101243.31;5100065;28;20035;-80
2023/12/26 08:17:08;;;;;;;0.10;0.10;;;;;;;11.02;61.63;101244.22;5106783;28;20035;-80
2023/12/26 08:19:34;;;;;;;0.10;0.10;;;;;;;11.07;61.34;101258.28;5106267;28;20024;-80
2023/12/26 08:22:00;;;;;;;0.10;0.10;;;;;;;10.92;61.68;101249.66;5106543;28;20107;-79
2023/12/26 08:24:26;;;;;;;0.13;0.13;;;;;;;10.92;61.77;101254.09;5092871;28;20027;-79
2023/12/26 08:26:53;;;;;;;0.10;0.10;;;;;;;10.94;61.66;101260.22;5095126;28;20054;-81
2023/12/26 08:29:20;;;;;;;0.10;0.10;;;;;;;10.92;61.87;101265.56;5086394;28;20055;-81
2023/12/26 08:31:46;;;;;;;0.10;0.10;;;;;;;10.96;61.46;101272.56;5086962;28;20031;-81
2023/12/26 08:34:13;;;;;;;0.20;0.20;;;;;;;10.84;62.23;101270.09;5086071;28;20032;-81
2023/12/26 08:36:39;;;;;;;0.10;0.10;;;;;;;10.89;62.13;101275.34;5084696;28;20081;-82
2023/12/26 08:39:05;;;;;;;1.13;1.13;;;;;;;10.83;62.14;101278.97;5085081;28;20038;-79
2023/12/26 08:41:32;;;;;;;0.20;0.20;;;;;;;10.84;61.88;101288.66;5085966;28;20032;-81
2023/12/26 08:43:58;;;;;;;0.10;0.10;;;;;;;10.87;61.72;101296.56;5083754;28;20032;-81
2023/12/26 08:46:24;;;;;;;0.65;0.65;;;;;;;10.91;61.59;101300.94;5084098;28;20024;-80
2023/12/26 08:48:51;;;;;;;0.57;0.45;;;;;;;10.91;61.28;101308.88;5084589;28;20028;-80
2023/12/26 08:51:19;;;;;;;0.20;0.20;;;;;;;10.95;61.63;101304.41;5083060;28;20016;-80
2023/12/26 08:53:47;;;;;;;0.20;0.20;;;;;;;10.88;62.04;101308.03;5078420;28;20040;-80
2023/12/26 08:56:14;;;;;;;0.10;0.10;;;;;;;10.83;62.09;101339.94;5073488;28;20028;-81
2023/12/26 08:58:41;;;;;;;0.10;0.10;;;;;;;10.85;62.10;101324.88;5074901;28;20449;-80
2023/12/26 09:01:10;;;;;;;0.10;0.10;;;;;;;10.82;61.70;101332.88;5074519;28;20063;-80
2023/12/26 09:03:37;;;;;;;0.20;0.20;;;;;;;10.85;61.87;101314.25;5076555;28;20075;-79
2023/12/26 09:06:04;;;;;;;0.10;0.10;;;;;;;10.87;62.10;101344.28;5085531;28;20032;-81
2023/12/26 09:08:30;;;;;;;0.10;0.10;;;;;;;10.79;61.75;101343.50;5088117;28;20044;-81
2023/12/26 09:10:56;;;;;;;0.10;0.10;;;;;;;10.86;62.09;101337.22;5099552;28;20084;-81
2023/12/26 09:13:26;;;;;;;0.20;0.20;;;;;;;10.80;61.77;101354.09;5104482;28;20074;-80
2023/12/26 09:15:52;;;;;;;0.10;0.10;;;;;;;10.88;61.54;101354.00;5103161;28;20020;-82
2023/12/26 09:18:18;;;;;;;0.20;0.20;;;;;;;10.96;61.22;101344.16;5103263;28;20034;-80
2023/12/26 09:20:44;;;;;;;0.10;0.10;;;;;;;10.96;61.18;101354.75;5103512;28;20032;-81
2023/12/26 09:23:12;;;;;;;0.32;0.32;;;;;;;11.02;61.43;101358.25;5105795;28;20107;-82
2023/12/26 09:25:38;;;;;;;1.95;1.85;;;;;;;10.95;61.26;101376.00;5102218;28;20035;-82
2023/12/26 09:28:05;;;;;;;0.15;0.15;;;;;;;11.04;61.47;101389.16;5098103;28;20407;-81
2023/12/26 09:30:32;;;;;;;0.15;0.15;;;;;;;10.97;61.26;101383.03;5076130;28;20036;-80
2023/12/26 09:32:58;;;;;;;0.10;0.10;;;;;;;11.23;60.84;101383.59;5077835;28;20036;-81
2023/12/26 09:35:24;;;;;;;0.10;0.10;;;;;;;11.27;60.75;101394.13;5081025;28;20028;-80
2023/12/26 09:37:50;;;;;;;0.25;0.25;;;;;;;11.22;60.97;101406.56;5081171;28;20108;-80
2023/12/26 09:40:18;;;;;;;0.10;0.10;;;;;;;11.29;60.87;101415.31;5088686;28;20040;-80
2023/12/26 09:42:44;;;;;;;3.15;1.27;;;;;;;11.24;60.22;101396.84;5097842;28;20039;-81
2023/12/26 09:45:12;;;;;;;0.52;0.52;;;;;;;11.37;60.35;101399.31;5100481;28;20103;-81
2023/12/26 09:47:42;;;;;;;0.43;0.43;;;;;;;11.36;60.27;101403.72;5103662;28;20024;-79
2023/12/26 09:50:09;;;;;;;0.10;0.10;;;;;;;11.35;59.91;101407.28;5102784;28;20042;-81
2023/12/26 09:52:37;;;;;;;0.22;0.22;;;;;;;11.50;59.92;101408.81;5104848;28;20035;-81
2023/12/26 09:55:04;;;;;;;0.10;0.10;;;;;;;11.45;60.26;101415.97;5094557;28;20316;-81
2023/12/26 09:57:30;;;;;;;0.20;0.20;;;;;;;11.53;60.35;101419.41;5086900;28;20020;-81
2023/12/26 09:59:58;;;;;;;0.13;0.13;;;;;;;11.57;60.09;101421.09;5084288;28;20062;-81
2023/12/26 10:02:24;;;;;;;0.03;0.03;;;;;;;11.57;59.81;101431.72;5084546;28;20120;-81
2023/12/26 10:04:50;;;;;;;0.10;0.10;;;;;;;11.54;59.35;101431.78;5085118;28;20094;-81
2023/12/26 10:07:18;;;;;;;0.10;0.10;;;;;;;11.58;59.39;101443.25;5088130;28;20028;-79
2023/12/26 10:09:44;;;;;;;0.10;0.10;;;;;;;11.59;58.46;101461.78;5090477;28;20021;-79
2023/12/26 10:12:11;;;;;;;3.58;2.47;;;;;;;11.84;58.76;101442.84;5091579;28;20047;-81
2023/12/26 10:14:37;;;;;;;0.10;0.10;;;;;;;11.75;58.88;101466.84;5095725;28;20411;-82
2023/12/26 10:17:08;;;;;;;3.00;1.08;;;;;;;11.92;58.22;101451.53;5097738;28;20028;-78
2023/12/26 10:19:34;;;;;;;0.10;0.10;;;;;;;11.93;58.15;101460.41;5088236;28;20117;-80
2023/12/26 10:22:03;;;;;;;0.10;0.10;;;;;;;12.04;58.29;101452.31;5077921;28;20487;-79
2023/12/26 10:24:30;;;;;;;0.10;0.10;;;;;;;11.97;58.00;101463.03;5089568;28;20390;-80
2023/12/26 10:26:56;;;;;;;0.10;0.10;;;;;;;12.07;57.86;101461.06;5096869;28;20034;-79
2023/12/26 10:29:22;;;;;;;0.10;0.10;;;;;;;12.03;57.75;101466.50;5087445;28;20028;-78
2023/12/26 10:31:49;;;;;;;0.10;0.10;;;;;;;12.02;57.15;101470.03;5080826;28;20029;-80
2023/12/26 10:34:18;;;;;;;0.10;0.10;;;;;;;12.12;57.02;101479.59;5088844;28;20028;-80
2023/12/26 10:36:46;;;;;;;0.10;0.10;;;;;;;12.00;56.60;101472.72;5101709;28;20043;-80
2023/12/26 10:39:12;;;;;;;0.10;0.10;;;;;;;12.27;56.81;101500.63;5100479;28;20487;-80
2023/12/26 10:41:47;;;;;;;0.10;0.10;;;;;;;12.15;55.85;101522.06;5103782;28;20143;-79
2023/12/26 10:44:15;;;;;;;0.20;0.20;;;;;;;12.28;55.80;101494.38;5112727;28;20441;-78
2023/12/26 10:46:43;;;;;;;0.10;0.10;;;;;;;12.35;55.38;101504.91;5115888;28;20047;-81
2023/12/26 10:49:12;;;;;;;0.10;0.10;;;;;;;12.48;54.75;101482.53;5109256;28;20083;-79
2023/12/26 10:51:43;;;;;;;0.10;0.10;;;;;;;12.59;55.01;101488.53;5094010;28;20021;-80
2023/12/26 10:56:48;;;;;;;0.10;0.10;;;;;;;12.46;54.74;101503.84;5124233;27;20391;-81
2023/12/26 13:53:47;;;;;;;0.10;0.10;;;;;;;12.13;53.22;101705.38;5091402;28;20121;-80
2023/12/26 13:56:33;;;;;;;0.20;0.20;;;;;;;12.08;53.35;101704.56;5103075;28;20038;-79
2023/12/26 13:58:59;;;;;;;0.10;0.10;;;;;;;12.05;53.47;101717.00;5101482;28;20062;-81
2023/12/26 14:01:46;;;;;;;0.10;0.10;;;;;;;11.98;52.62;101725.03;5104635;28;20044;-80
2023/12/26 14:04:13;;;;;;;0.10;0.10;;;;;;;12.07;53.30;101717.88;5107560;28;20048;-79
2023/12/26 14:06:39;;;;;;;0.10;0.10;;;;;;;12.06;53.64;101726.72;5096234;28;20394;-80
2023/12/26 14:09:05;;;;;;;0.20;0.20;;;;;;;12.02;52.91;101740.94;5108054;28;20107;-81
2023/12/26 14:11:31;;;;;;;0.10;0.10;;;;;;;11.98;53.11;101738.31;5109432;28;20024;-80
2023/12/26 14:13:57;;;;;;;0.10;0.10;;;;;;;12.03;53.45;101737.41;5109604;28;20438;-79
2023/12/26 14:16:24;;;;;;;0.10;0.10;;;;;;;12.00;53.24;101753.34;5108796;28;20020;-80
2023/12/26 14:18:50;;;;;;;0.10;0.10;;;;;;;11.85;51.93;101765.88;5107903;28;20043;-80